ADDS TAF Data INFO
IDs: Format: Raw Decoded Include METARs

Data at: 1930 UTC 23 Jun 2018

KORF 231729Z 2318/2418 22010KT P6SM SCT045
  FM232000 22008KT P6SM VCTS BKN045CB
  FM240000 21008KT P6SM VCSH SCT040
  FM240300 22008KT P6SM SCT045